Time;durP1;ratioP1;P1;durP2;ratioP2;P2;SDS_P1;SDS_P2;PMS_P1;PMS_P2;Temp;Humidity;BMP_temperature;BMP_pressure;BME280_temperature;BME280_humidity;BME280_pressure;Samples;Min_cycle;Max_cycle;Signal;HPM_P1;HPM_P2
2022/10/16 00:01:46;;;;;;;20.60;16.60;;;;;;;-142.37;100.00;59669.53;5115006;28;20039;-70
2022/10/16 00:04:13;;;;;;;21.17;16.17;;;;;;;-142.37;100.00;59669.53;5096514;28;20046;-69
2022/10/16 00:06:38;;;;;;;19.10;14.15;;;;;;;-142.37;100.00;59669.53;5096367;28;20031;-70
2022/10/16 00:09:05;;;;;;;18.00;13.45;;;;;;;-142.37;100.00;59669.53;5114307;28;20449;-71
2022/10/16 00:11:36;;;;;;;21.52;14.63;;;;;;;-142.37;100.00;59669.53;5096296;28;20061;-72
2022/10/16 00:14:03;;;;;;;20.42;14.85;;;;;;;-142.37;100.00;59669.53;5114502;28;20032;-72
2022/10/16 00:16:30;;;;;;;20.05;14.75;;;;;;;-142.37;100.00;59669.53;5114472;28;20035;-69
2022/10/16 00:18:56;;;;;;;15.75;13.27;;;;;;;-142.37;100.00;59669.53;5114309;28;20028;-70
2022/10/16 00:21:27;;;;;;;19.02;12.73;;;;;;;-142.37;100.00;59669.53;5096051;28;20039;-71
2022/10/16 00:23:56;;;;;;;21.08;13.85;;;;;;;-142.37;100.00;59669.53;5114125;28;20028;-69
2022/10/16 00:26:22;;;;;;;16.85;13.30;;;;;;;-142.37;100.00;59669.53;5096037;28;20031;-71
2022/10/16 00:28:50;;;;;;;18.60;13.25;;;;;;;-142.37;100.00;59669.53;5114249;28;20023;-70
2022/10/16 00:31:17;;;;;;;17.35;13.05;;;;;;;-142.37;100.00;59669.53;5113902;28;20027;-71
2022/10/16 00:33:43;;;;;;;18.30;12.40;;;;;;;-142.37;100.00;59669.53;5095477;28;20399;-73
2022/10/16 00:36:15;;;;;;;18.17;13.32;;;;;;;-142.37;100.00;59669.53;5095347;28;20027;-70
2022/10/16 00:38:40;;;;;;;15.60;11.98;;;;;;;-142.37;100.00;59669.53;5113710;28;20035;-71
2022/10/16 00:41:10;;;;;;;14.15;9.75;;;;;;;-142.37;100.00;59669.53;5095272;28;20053;-69
2022/10/16 00:43:44;;;;;;;14.52;9.25;;;;;;;-142.37;100.00;59669.53;5113788;28;20023;-69
2022/10/16 00:46:23;;;;;;;17.75;11.77;;;;;;;-142.37;100.00;59669.53;5095427;28;20031;-71
2022/10/16 00:48:55;;;;;;;15.18;10.82;;;;;;;-142.37;100.00;59669.53;5113634;28;20098;-72
2022/10/16 00:51:25;;;;;;;15.85;11.50;;;;;;;-142.37;100.00;59669.53;5095463;28;20030;-68
2022/10/16 00:53:51;;;;;;;17.92;13.10;;;;;;;-142.37;100.00;59669.53;5113707;28;20031;-69
2022/10/16 00:56:18;;;;;;;16.13;12.38;;;;;;;-142.37;100.00;59669.53;5112897;28;20059;-69
2022/10/16 00:58:44;;;;;;;13.75;10.73;;;;;;;-142.37;100.00;59669.53;5113338;28;20043;-70
2022/10/16 01:01:09;;;;;;;16.38;12.50;;;;;;;-142.37;100.00;59669.53;5095072;28;20536;-70
2022/10/16 01:03:37;;;;;;;21.33;12.60;;;;;;;-142.37;100.00;59669.53;5113551;28;20111;-70
2022/10/16 01:06:21;;;;;;;18.20;12.77;;;;;;;-142.37;100.00;59669.53;5095323;28;20309;-70
2022/10/16 01:08:49;;;;;;;19.07;12.27;;;;;;;-142.37;100.00;59669.53;5113592;28;20040;-71
2022/10/16 01:11:50;;;;;;;16.92;11.73;;;;;;;-142.37;100.00;59669.53;5094756;28;20020;-71
2022/10/16 01:14:44;;;;;;;16.33;12.50;;;;;;;-142.37;100.00;59669.53;5006395;28;20188;-69
2022/10/16 01:17:21;;;;;;;14.70;10.63;;;;;;;-142.37;100.00;59669.53;5113300;28;20440;-70
2022/10/16 01:20:11;;;;;;;14.93;12.23;;;;;;;-142.37;100.00;59669.53;5112712;28;20114;-70
2022/10/16 01:22:48;;;;;;;22.00;12.75;;;;;;;-142.37;100.00;59669.53;5094756;28;20028;-69
2022/10/16 01:25:25;;;;;;;19.70;13.68;;;;;;;-142.37;100.00;59669.53;5094627;28;20433;-69
2022/10/16 01:27:52;;;;;;;20.67;11.98;;;;;;;-142.37;100.00;59669.53;5094504;28;20104;-72
2022/10/16 01:30:32;;;;;;;17.52;13.10;;;;;;;-142.37;100.00;59669.53;5112866;28;20473;-71
2022/10/16 01:33:06;;;;;;;17.05;13.30;;;;;;;-142.37;100.00;59669.53;5112639;28;20153;-70
2022/10/16 01:35:38;;;;;;;17.30;13.60;;;;;;;-142.37;100.00;59669.53;5113253;28;20073;-70
2022/10/16 01:38:10;;;;;;;17.65;14.27;;;;;;;-142.37;100.00;59669.53;5112836;28;20046;-71
2022/10/16 01:40:39;;;;;;;16.17;12.25;;;;;;;-142.37;100.00;59669.53;5112644;28;20515;-70
2022/10/16 01:43:11;;;;;;;14.95;11.38;;;;;;;-142.37;100.00;59669.53;5094509;28;20027;-71
2022/10/16 01:45:37;;;;;;;17.13;12.48;;;;;;;-142.37;100.00;59669.53;5112945;28;20383;-70
2022/10/16 01:48:07;;;;;;;15.75;12.43;;;;;;;-142.37;100.00;59669.53;5094537;28;20036;-70
2022/10/16 01:50:38;;;;;;;17.23;13.30;;;;;;;-142.37;100.00;59669.53;5094574;28;20042;-70
2022/10/16 01:53:07;;;;;;;16.60;12.60;;;;;;;-142.37;100.00;59669.53;5112421;28;20035;-69
2022/10/16 01:55:39;;;;;;;14.15;11.50;;;;;;;-142.37;100.00;59669.53;5094641;28;20028;-70
2022/10/16 01:58:08;;;;;;;18.50;14.63;;;;;;;-142.37;100.00;59669.53;5112633;28;20496;-70
2022/10/16 02:00:36;;;;;;;15.25;11.32;;;;;;;-142.37;100.00;59669.53;5113511;28;20039;-71
2022/10/16 02:03:04;;;;;;;14.50;10.88;;;;;;;-142.37;100.00;59669.53;5113175;28;20063;-70
2022/10/16 02:05:41;;;;;;;15.00;11.45;;;;;;;-142.37;100.00;59669.53;5113067;28;20089;-68
2022/10/16 02:08:06;;;;;;;14.18;11.05;;;;;;;-142.37;100.00;59669.53;5095896;28;20120;-70
2022/10/16 02:10:34;;;;;;;15.90;10.85;;;;;;;-142.37;100.00;59669.53;5116926;28;20119;-70
2022/10/16 02:13:08;;;;;;;17.60;11.93;;;;;;;-142.37;100.00;59669.53;5116519;28;20031;-69
2022/10/16 02:15:34;;;;;;;16.83;11.15;;;;;;;-142.37;100.00;59669.53;5116804;28;20458;-70
2022/10/16 02:18:02;;;;;;;16.33;11.45;;;;;;;-142.37;100.00;59669.53;5098165;28;20067;-70
2022/10/16 02:20:34;;;;;;;16.75;11.90;;;;;;;-142.37;100.00;59669.53;5116719;28;20028;-70
2022/10/16 02:23:02;;;;;;;14.15;10.60;;;;;;;-142.37;100.00;59669.53;5098393;28;20036;-69
2022/10/16 02:25:35;;;;;;;16.55;11.35;;;;;;;-142.37;100.00;59669.53;5098469;28;20464;-70
2022/10/16 02:28:12;;;;;;;14.07;11.23;;;;;;;-142.37;100.00;59669.53;5116475;28;20039;-70
2022/10/16 02:30:41;;;;;;;17.10;12.68;;;;;;;-142.37;100.00;59669.53;5116521;28;20031;-71
2022/10/16 02:33:10;;;;;;;16.80;11.77;;;;;;;-142.37;100.00;59669.53;5097927;28;20031;-71
2022/10/16 02:35:38;;;;;;;18.10;12.05;;;;;;;-142.37;100.00;59669.53;5098143;28;20027;-70
2022/10/16 02:38:05;;;;;;;14.43;11.23;;;;;;;-142.37;100.00;59669.53;5116240;28;20525;-70
2022/10/16 02:40:31;;;;;;;14.80;11.80;;;;;;;-142.37;100.00;59669.53;5116303;28;20027;-69
2022/10/16 02:42:57;;;;;;;15.40;12.00;;;;;;;-142.37;100.00;59669.53;5115991;28;20031;-71
2022/10/16 02:45:23;;;;;;;16.73;12.00;;;;;;;-142.37;100.00;59669.53;5116469;28;20110;-70
2022/10/16 02:47:49;;;;;;;15.27;11.80;;;;;;;-142.37;100.00;59669.53;5116284;28;20047;-71
2022/10/16 02:50:15;;;;;;;16.83;12.00;;;;;;;-142.37;100.00;59669.53;5116069;28;20024;-70
2022/10/16 02:52:41;;;;;;;11.70;9.15;;;;;;;-142.37;100.00;59669.53;5115887;28;20118;-71
2022/10/16 02:55:07;;;;;;;13.45;9.50;;;;;;;-142.37;100.00;59669.53;5115919;28;20059;-70
2022/10/16 02:57:32;;;;;;;14.77;10.43;;;;;;;-142.37;100.00;59669.53;5097742;28;20530;-72
2022/10/16 02:59:58;;;;;;;12.77;9.30;;;;;;;-142.37;100.00;59669.53;5097652;28;20035;-71
2022/10/16 03:02:24;;;;;;;11.00;8.63;;;;;;;-142.37;100.00;59669.53;5097784;28;20472;-70
2022/10/16 03:04:50;;;;;;;12.88;10.15;;;;;;;-142.37;100.00;59669.53;5115992;28;20073;-70
2022/10/16 03:07:15;;;;;;;12.00;9.40;;;;;;;-142.37;100.00;59669.53;5097506;28;20449;-70
2022/10/16 03:09:41;;;;;;;12.15;10.32;;;;;;;-142.37;100.00;59669.53;5116209;28;20039;-71
2022/10/16 03:12:07;;;;;;;13.93;9.70;;;;;;;-142.37;100.00;59669.53;5116385;28;20046;-70
2022/10/16 03:14:33;;;;;;;12.35;8.80;;;;;;;-142.37;100.00;59669.53;5097431;28;20038;-69
2022/10/16 03:16:59;;;;;;;11.60;8.93;;;;;;;-142.37;100.00;59669.53;5097135;28;20032;-72
2022/10/16 03:19:25;;;;;;;14.07;9.55;;;;;;;-142.37;100.00;59669.53;5114521;28;20164;-69
2022/10/16 03:21:50;;;;;;;12.90;8.80;;;;;;;-142.37;100.00;59669.53;5097297;28;20027;-70
2022/10/16 03:24:16;;;;;;;13.15;9.88;;;;;;;-142.37;100.00;59669.53;5115560;28;20069;-69
2022/10/16 03:26:41;;;;;;;11.35;8.35;;;;;;;-142.37;100.00;59669.53;5097081;28;20031;-69
2022/10/16 03:29:07;;;;;;;10.40;8.25;;;;;;;-142.37;100.00;59669.53;5097117;28;20375;-70
2022/10/16 03:31:33;;;;;;;14.07;8.88;;;;;;;-142.37;100.00;59669.53;5097309;28;20480;-70
2022/10/16 03:33:59;;;;;;;11.00;8.80;;;;;;;-142.37;100.00;59669.53;5097391;28;20081;-69
2022/10/16 03:36:25;;;;;;;10.48;8.30;;;;;;;-142.37;100.00;59669.53;5097087;28;20027;-72
2022/10/16 03:38:51;;;;;;;10.25;7.65;;;;;;;-142.37;100.00;59669.53;5115514;28;20036;-70
2022/10/16 03:41:16;;;;;;;15.48;8.98;;;;;;;-142.37;100.00;59669.53;5114900;28;20031;-70
2022/10/16 03:43:42;;;;;;;11.32;8.60;;;;;;;-142.37;100.00;59669.53;5114942;28;20035;-71
2022/10/16 03:46:07;;;;;;;10.45;8.43;;;;;;;-142.37;100.00;59669.53;5115387;28;20464;-68
2022/10/16 03:48:33;;;;;;;11.43;9.68;;;;;;;-142.37;100.00;59669.53;5115243;28;20035;-68
2022/10/16 03:50:59;;;;;;;12.52;8.95;;;;;;;-142.37;100.00;59669.53;5098268;28;20030;-70
2022/10/16 03:53:25;;;;;;;13.20;8.65;;;;;;;-142.37;100.00;59669.53;5121040;28;20032;-68
2022/10/16 03:55:51;;;;;;;13.00;8.65;;;;;;;-142.37;100.00;59669.53;5121037;28;20069;-70
2022/10/16 03:58:17;;;;;;;11.55;8.65;;;;;;;-142.37;100.00;59669.53;5117667;28;20764;-69
2022/10/16 04:00:44;;;;;;;12.25;8.00;;;;;;;-142.37;100.00;59669.53;5114918;28;20122;-70
2022/10/16 04:03:10;;;;;;;11.98;7.32;;;;;;;-142.37;100.00;59669.53;5096451;28;20379;-70
2022/10/16 04:05:36;;;;;;;16.33;7.72;;;;;;;-142.37;100.00;59669.53;5096422;28;20028;-70
2022/10/16 04:08:02;;;;;;;15.05;7.72;;;;;;;-142.37;100.00;59669.53;5114917;28;20035;-72
2022/10/16 04:10:28;;;;;;;10.23;6.72;;;;;;;-142.37;100.00;59669.53;5096149;28;20126;-69
2022/10/16 04:12:57;;;;;;;11.30;7.88;;;;;;;-142.37;100.00;59669.53;5095970;28;20169;-69
2022/10/16 04:15:23;;;;;;;7.85;6.53;;;;;;;-142.37;100.00;59669.53;5114632;28;20106;-70
2022/10/16 04:17:49;;;;;;;11.00;8.80;;;;;;;-142.37;100.00;59669.53;5114569;28;20099;-70
2022/10/16 04:20:15;;;;;;;9.73;7.88;;;;;;;-142.37;100.00;59669.53;5096051;28;20104;-71
2022/10/16 04:22:40;;;;;;;10.93;7.90;;;;;;;-142.37;100.00;59669.53;5114282;28;20027;-70
2022/10/16 04:25:06;;;;;;;11.55;7.25;;;;;;;-142.37;100.00;59669.53;5095356;28;20110;-70
2022/10/16 04:27:32;;;;;;;8.10;7.20;;;;;;;-142.37;100.00;59669.53;5095642;28;20032;-68
2022/10/16 04:30:00;;;;;;;9.40;6.47;;;;;;;-142.37;100.00;59669.53;5095968;28;20031;-69
2022/10/16 04:32:27;;;;;;;10.63;7.25;;;;;;;-142.37;100.00;59669.53;5113647;28;20038;-70
2022/10/16 04:34:53;;;;;;;11.20;7.95;;;;;;;-142.37;100.00;59669.53;5114046;28;20031;-70
2022/10/16 04:37:18;;;;;;;7.13;5.82;;;;;;;-142.37;100.00;59669.53;5113734;28;20106;-70
2022/10/16 04:39:44;;;;;;;8.55;5.80;;;;;;;-142.37;100.00;59669.53;5113271;28;20055;-69
2022/10/16 04:42:11;;;;;;;7.68;5.72;;;;;;;-142.37;100.00;59669.53;5114021;28;20036;-69
2022/10/16 04:44:36;;;;;;;9.20;7.13;;;;;;;-142.37;100.00;59669.53;5113918;28;20089;-69
2022/10/16 04:47:02;;;;;;;11.43;7.57;;;;;;;-142.37;100.00;59669.53;5113409;28;20036;-69
2022/10/16 04:49:27;;;;;;;8.85;5.80;;;;;;;-142.37;100.00;59669.53;5095536;28;20388;-70
2022/10/16 04:51:53;;;;;;;9.65;6.22;;;;;;;-142.37;100.00;59669.53;5113624;28;20031;-67
2022/10/16 04:54:19;;;;;;;9.13;7.28;;;;;;;-142.37;100.00;59669.53;5113506;28;20115;-68
2022/10/16 04:56:47;;;;;;;6.97;5.35;;;;;;;-142.37;100.00;59669.53;5113297;28;20412;-70
2022/10/16 04:59:14;;;;;;;9.23;6.65;;;;;;;-142.37;100.00;59669.53;5113371;28;20031;-71
2022/10/16 05:01:40;;;;;;;7.47;6.20;;;;;;;-142.37;100.00;59669.53;5095293;28;20028;-70
2022/10/16 05:04:06;;;;;;;10.50;7.15;;;;;;;-142.37;100.00;59669.53;5113546;28;20024;-71
2022/10/16 05:06:31;;;;;;;9.90;7.32;;;;;;;-142.37;100.00;59669.53;5113641;28;20031;-70
2022/10/16 05:08:57;;;;;;;9.48;7.68;;;;;;;-142.37;100.00;59669.53;5094663;28;20031;-69
2022/10/16 05:11:22;;;;;;;9.85;7.38;;;;;;;-142.37;100.00;59669.53;5094732;28;20059;-70
2022/10/16 05:13:48;;;;;;;10.07;7.75;;;;;;;-142.37;100.00;59669.53;5113155;28;20059;-70
2022/10/16 05:16:14;;;;;;;10.40;7.05;;;;;;;-142.37;100.00;59669.53;5113163;28;20031;-69
2022/10/16 05:18:39;;;;;;;9.75;7.30;;;;;;;-142.37;100.00;59669.53;5113188;28;20468;-69
2022/10/16 05:21:05;;;;;;;12.40;8.00;;;;;;;-142.37;100.00;59669.53;5112912;28;20031;-70
2022/10/16 05:23:31;;;;;;;11.70;8.02;;;;;;;-142.37;100.00;59669.53;5113026;28;20031;-69
2022/10/16 05:25:59;;;;;;;9.55;7.50;;;;;;;-142.37;100.00;59669.53;5113243;28;20102;-69
2022/10/16 05:28:30;;;;;;;12.38;8.60;;;;;;;-142.37;100.00;59669.53;5113045;28;20020;-71
2022/10/16 05:30:56;;;;;;;10.05;7.80;;;;;;;-142.37;100.00;59669.53;5113086;28;20110;-70
2022/10/16 05:33:23;;;;;;;11.85;8.35;;;;;;;-142.37;100.00;59669.53;5113329;28;20480;-70
2022/10/16 05:35:49;;;;;;;11.27;8.07;;;;;;;-142.37;100.00;59669.53;5094818;28;20032;-70
2022/10/16 05:38:16;;;;;;;9.38;7.78;;;;;;;-142.37;100.00;59669.53;5094564;28;20172;-71
2022/10/16 05:40:41;;;;;;;11.35;6.95;;;;;;;-142.37;100.00;59669.53;5113529;28;20084;-71
2022/10/16 05:43:07;;;;;;;12.82;7.78;;;;;;;-142.37;100.00;59669.53;5094273;28;20454;-72
2022/10/16 05:45:33;;;;;;;11.82;7.53;;;;;;;-142.37;100.00;59669.53;5112983;28;20426;-71
2022/10/16 05:48:00;;;;;;;10.85;7.50;;;;;;;-142.37;100.00;59669.53;5112769;28;20038;-70
2022/10/16 05:50:26;;;;;;;13.82;8.63;;;;;;;-142.37;100.00;59669.53;5094269;28;20045;-72
2022/10/16 05:52:51;;;;;;;10.50;8.43;;;;;;;-142.37;100.00;59669.53;5112479;28;20496;-72
2022/10/16 05:55:17;;;;;;;13.68;7.97;;;;;;;-142.37;100.00;59669.53;5094102;28;20051;-71
2022/10/16 05:57:43;;;;;;;13.15;8.82;;;;;;;-142.37;100.00;59669.53;5094179;28;20070;-71
2022/10/16 06:00:09;;;;;;;13.45;9.32;;;;;;;-142.37;100.00;59669.53;5112623;28;20063;-70
2022/10/16 06:02:35;;;;;;;16.15;10.30;;;;;;;-142.37;100.00;59669.53;5093657;28;20038;-70
2022/10/16 06:05:00;;;;;;;13.88;10.10;;;;;;;-142.37;100.00;59669.53;5094047;28;20023;-70
2022/10/16 06:07:26;;;;;;;15.90;10.27;;;;;;;-142.37;100.00;59669.53;5112621;28;20024;-70
2022/10/16 06:09:52;;;;;;;17.30;10.98;;;;;;;-142.37;100.00;59669.53;5112738;28;20068;-71
2022/10/16 06:12:19;;;;;;;15.30;10.55;;;;;;;-142.37;100.00;59669.53;5112378;28;20063;-69
2022/10/16 06:14:46;;;;;;;16.52;12.10;;;;;;;-142.37;100.00;59669.53;5112997;28;20038;-69
2022/10/16 06:17:14;;;;;;;19.88;12.20;;;;;;;-142.37;100.00;59669.53;5093794;28;20036;-69
2022/10/16 06:19:39;;;;;;;18.65;12.20;;;;;;;-142.37;100.00;59669.53;5112406;28;20043;-70
2022/10/16 06:22:05;;;;;;;19.00;13.85;;;;;;;-142.37;100.00;59669.53;5111982;28;20024;-70
2022/10/16 06:24:31;;;;;;;17.85;13.27;;;;;;;-142.37;100.00;59669.53;5112235;28;20030;-70
2022/10/16 06:26:56;;;;;;;20.25;14.13;;;;;;;-142.37;100.00;59669.53;5094035;28;20028;-73
2022/10/16 06:29:22;;;;;;;17.02;13.23;;;;;;;-142.37;100.00;59669.53;5094021;28;20474;-69
2022/10/16 06:31:47;;;;;;;21.48;14.55;;;;;;;-142.37;100.00;59669.53;5112385;28;20064;-70
2022/10/16 06:34:13;;;;;;;22.30;14.40;;;;;;;-142.37;100.00;59669.53;5112135;28;20036;-69
2022/10/16 06:36:40;;;;;;;21.40;15.05;;;;;;;-142.37;100.00;59669.53;5112097;28;20102;-70
2022/10/16 06:39:07;;;;;;;17.15;13.65;;;;;;;-142.37;100.00;59669.53;5093686;28;20510;-70
2022/10/16 06:41:33;;;;;;;18.52;13.38;;;;;;;-142.37;100.00;59669.53;5112373;28;20165;-69
2022/10/16 06:43:59;;;;;;;19.85;14.45;;;;;;;-142.37;100.00;59669.53;5112332;28;20024;-71
2022/10/16 06:46:26;;;;;;;20.58;14.52;;;;;;;-142.37;100.00;59669.53;5112072;28;20035;-70
2022/10/16 06:48:53;;;;;;;17.05;13.77;;;;;;;-142.37;100.00;59669.53;5093908;28;20401;-70
2022/10/16 06:51:23;;;;;;;19.10;14.68;;;;;;;-142.37;100.00;59669.53;5112005;28;20465;-71
2022/10/16 06:53:52;;;;;;;21.48;13.85;;;;;;;-142.37;100.00;59669.53;5094531;28;20037;-70
2022/10/16 06:56:23;;;;;;;18.50;14.32;;;;;;;-142.37;100.00;59669.53;5115882;28;20544;-71
2022/10/16 06:58:50;;;;;;;19.83;14.43;;;;;;;-142.37;100.00;59669.53;5075003;28;20470;-70
2022/10/16 07:01:17;;;;;;;21.20;13.85;;;;;;;-142.37;100.00;59669.53;5074833;28;20040;-70
2022/10/16 07:03:44;;;;;;;18.50;14.07;;;;;;;-142.37;100.00;59669.53;5075373;28;20071;-70
2022/10/16 07:06:12;;;;;;;17.00;13.48;;;;;;;-142.37;100.00;59669.53;5075400;28;20485;-71
2022/10/16 07:08:39;;;;;;;20.52;14.30;;;;;;;-142.37;100.00;59669.53;5075147;28;20028;-71
2022/10/16 07:11:16;;;;;;;18.38;14.10;;;;;;;-142.37;100.00;59669.53;5090031;28;20489;-72
2022/10/16 07:13:43;;;;;;;16.00;11.55;;;;;;;-142.37;100.00;59669.53;5074882;28;20081;-71
2022/10/16 07:16:20;;;;;;;17.23;12.55;;;;;;;-142.37;100.00;59669.53;5090262;28;20028;-71
2022/10/16 07:18:48;;;;;;;15.30;10.90;;;;;;;-142.37;100.00;59669.53;5074905;28;20043;-70
2022/10/16 07:21:16;;;;;;;17.55;11.15;;;;;;;-142.37;100.00;59669.53;5074498;28;20405;-70
2022/10/16 07:23:42;;;;;;;19.90;11.35;;;;;;;-142.37;100.00;59669.53;5074415;28;20534;-69
2022/10/16 07:26:08;;;;;;;14.23;11.07;;;;;;;-142.37;100.00;59669.53;5074513;28;20024;-72
2022/10/16 07:28:34;;;;;;;15.70;11.38;;;;;;;-142.37;100.00;59669.53;5089717;28;20029;-70
2022/10/16 07:31:02;;;;;;;11.30;9.85;;;;;;;-142.37;100.00;59669.53;5074028;28;20027;-72
2022/10/16 07:33:29;;;;;;;14.85;10.15;;;;;;;-142.37;100.00;59669.53;5074259;28;20036;-72
2022/10/16 07:35:54;;;;;;;13.93;9.07;;;;;;;-142.37;100.00;59669.53;5074343;28;20024;-75
2022/10/16 07:38:21;;;;;;;11.27;9.02;;;;;;;-142.37;100.00;59669.53;5074461;28;20496;-72
2022/10/16 07:40:48;;;;;;;11.98;9.50;;;;;;;-142.37;100.00;59669.53;5074536;28;20033;-69
2022/10/16 07:43:14;;;;;;;13.00;8.98;;;;;;;-142.37;100.00;59669.53;5073914;28;20103;-70
2022/10/16 07:45:48;;;;;;;11.57;9.50;;;;;;;-142.37;100.00;59669.53;5072983;28;20036;-71
2022/10/16 07:48:14;;;;;;;11.18;7.65;;;;;;;-142.37;100.00;59669.53;5072883;28;20447;-70
2022/10/16 07:50:41;;;;;;;11.05;7.47;;;;;;;-142.37;100.00;59669.53;5074070;28;20055;-70
2022/10/16 07:53:07;;;;;;;11.15;6.72;;;;;;;-142.37;100.00;59669.53;5073745;28;20470;-73
2022/10/16 07:55:33;;;;;;;8.25;7.35;;;;;;;-142.37;100.00;59669.53;5073952;28;20119;-70
2022/10/16 07:57:58;;;;;;;12.48;7.40;;;;;;;-142.37;100.00;59669.53;5101451;28;20155;-70
2022/10/16 08:00:24;;;;;;;10.15;7.07;;;;;;;-142.37;100.00;59669.53;5114958;28;20031;-70
2022/10/16 08:02:49;;;;;;;11.43;7.30;;;;;;;-142.37;100.00;59669.53;5096105;28;20201;-71
2022/10/16 08:05:15;;;;;;;7.88;6.53;;;;;;;-142.37;100.00;59669.53;5095324;28;20114;-69
2022/10/16 08:07:41;;;;;;;8.80;6.28;;;;;;;-142.37;100.00;59669.53;5095530;28;20028;-70
2022/10/16 08:10:06;;;;;;;9.48;6.50;;;;;;;-142.37;100.00;59669.53;5095420;28;20068;-70
2022/10/16 08:12:33;;;;;;;8.90;6.07;;;;;;;-142.37;100.00;59669.53;5113872;28;20032;-69
2022/10/16 08:14:59;;;;;;;7.78;5.70;;;;;;;-142.37;100.00;59669.53;5095749;28;20038;-71
2022/10/16 08:17:24;;;;;;;7.15;4.80;;;;;;;-142.37;100.00;59669.53;5113714;28;20024;-71
2022/10/16 08:19:50;;;;;;;6.53;5.10;;;;;;;-142.37;100.00;59669.53;5114081;28;20491;-72
2022/10/16 08:22:15;;;;;;;8.77;6.53;;;;;;;-142.37;100.00;59669.53;5114125;28;20472;-72
2022/10/16 08:24:41;;;;;;;10.05;6.75;;;;;;;-142.37;100.00;59669.53;5094924;28;20434;-69
2022/10/16 08:27:08;;;;;;;12.07;5.00;;;;;;;-142.37;100.00;59669.53;5113665;28;20469;-73
2022/10/16 08:29:34;;;;;;;9.07;5.40;;;;;;;-142.37;100.00;59669.53;5113368;28;20540;-71
2022/10/16 08:32:00;;;;;;;6.97;4.78;;;;;;;-142.37;100.00;59669.53;5114119;28;20028;-70
2022/10/16 08:34:26;;;;;;;7.68;4.70;;;;;;;-142.37;100.00;59669.53;5094920;28;20063;-71
2022/10/16 08:36:54;;;;;;;17.42;4.85;;;;;;;-142.37;100.00;59669.53;5113274;28;20108;-70
2022/10/16 08:39:19;;;;;;;6.85;4.32;;;;;;;-142.37;100.00;59669.53;5113331;28;20063;-72
2022/10/16 08:42:22;;;;;;;6.60;4.90;;;;;;;-142.37;100.00;59669.53;5113444;28;20070;-69
2022/10/16 08:45:09;;;;;;;6.57;4.43;;;;;;;-142.37;100.00;59669.53;5113329;28;20039;-70
2022/10/16 08:47:48;;;;;;;7.13;4.35;;;;;;;-142.37;100.00;59669.53;5095173;28;20027;-69
2022/10/16 08:50:22;;;;;;;6.88;4.50;;;;;;;-142.37;100.00;59669.53;5113457;28;20027;-70
2022/10/16 08:52:48;;;;;;;5.78;4.18;;;;;;;-142.37;100.00;59669.53;5113556;28;20020;-69
2022/10/16 08:55:46;;;;;;;5.70;4.05;;;;;;;-142.37;100.00;59669.53;5112886;28;20048;-71
2022/10/16 08:58:17;;;;;;;4.80;4.13;;;;;;;-142.37;100.00;59669.53;5112963;28;20135;-71
2022/10/16 09:00:47;;;;;;;5.78;4.47;;;;;;;-142.37;100.00;59669.53;5113279;28;20110;-71
2022/10/16 09:03:35;;;;;;;7.07;3.80;;;;;;;-142.37;100.00;59669.53;5094925;28;20031;-71
2022/10/16 09:06:25;;;;;;;6.40;3.75;;;;;;;-142.37;100.00;59669.53;5094961;28;20036;-70
2022/10/16 09:09:13;;;;;;;6.32;3.45;;;;;;;-142.37;100.00;59669.53;5094912;28;20031;-70
2022/10/16 09:11:54;;;;;;;8.85;3.17;;;;;;;-142.37;100.00;59669.53;5112589;28;20114;-70
2022/10/16 09:14:40;;;;;;;9.57;3.50;;;;;;;-142.37;100.00;59669.53;5094598;28;20073;-70
2022/10/16 09:17:24;;;;;;;6.40;3.38;;;;;;;-142.37;100.00;59669.53;5094023;28;20031;-70
2022/10/16 09:20:13;;;;;;;5.80;3.45;;;;;;;-142.37;100.00;59669.53;5113309;28;20036;-70
2022/10/16 09:22:39;;;;;;;6.75;3.83;;;;;;;-142.37;100.00;59669.53;5071150;28;20118;-69
2022/10/16 09:25:18;;;;;;;6.32;3.30;;;;;;;-142.37;100.00;59669.53;5111744;28;20043;-71
2022/10/16 09:27:46;;;;;;;5.50;3.42;;;;;;;-142.37;100.00;59669.53;5094673;28;20032;-73
2022/10/16 09:30:18;;;;;;;8.35;3.90;;;;;;;-142.37;100.00;59669.53;5112947;28;20080;-70
2022/10/16 09:32:45;;;;;;;6.28;3.25;;;;;;;-142.37;100.00;59669.53;5112863;28;20047;-69
2022/10/16 09:35:16;;;;;;;7.70;4.07;;;;;;;-142.37;100.00;59669.53;5093256;28;20023;-71
2022/10/16 09:37:48;;;;;;;6.10;3.45;;;;;;;-142.37;100.00;59669.53;5112335;28;20066;-69
2022/10/16 09:40:51;;;;;;;4.82;2.83;;;;;;;-142.37;100.00;59669.53;5112550;28;20039;-71
2022/10/16 09:43:25;;;;;;;5.28;3.10;;;;;;;-142.37;100.00;59669.53;5089604;28;20721;-70
2022/10/16 09:45:59;;;;;;;6.53;3.00;;;;;;;-142.37;100.00;59669.53;5093135;28;20051;-71
2022/10/16 09:48:28;;;;;;;10.48;4.18;;;;;;;-142.37;100.00;59669.53;5093896;28;20460;-70
2022/10/16 09:50:59;;;;;;;6.95;3.67;;;;;;;-142.37;100.00;59669.53;5112108;28;20070;-72
2022/10/16 09:53:37;;;;;;;6.65;3.28;;;;;;;-142.37;100.00;59669.53;5111872;28;20114;-70
2022/10/16 09:56:05;;;;;;;8.73;3.08;;;;;;;-142.37;100.00;59669.53;5093596;28;20139;-71
2022/10/16 09:58:32;;;;;;;8.75;3.88;;;;;;;-142.37;100.00;59669.53;5111550;28;20051;-70
2022/10/16 10:00:59;;;;;;;6.03;3.30;;;;;;;-142.37;100.00;59669.53;5093974;28;20357;-71
2022/10/16 10:03:37;;;;;;;6.85;3.50;;;;;;;-142.37;100.00;59669.53;5112080;28;20472;-70
2022/10/16 10:06:23;;;;;;;5.45;3.53;;;;;;;-142.37;100.00;59669.53;5092928;28;20497;-71
2022/10/16 10:08:59;;;;;;;7.22;2.85;;;;;;;-142.37;100.00;59669.53;5111876;28;20080;-72
2022/10/16 10:11:48;;;;;;;4.38;2.55;;;;;;;-142.37;100.00;59669.53;5111940;28;20434;-70
2022/10/16 10:14:21;;;;;;;8.70;3.03;;;;;;;-142.37;100.00;59669.53;5093722;28;20020;-71
2022/10/16 10:16:48;;;;;;;5.68;2.85;;;;;;;-142.37;100.00;59669.53;5112446;28;20037;-70
2022/10/16 10:19:22;;;;;;;5.93;2.90;;;;;;;-142.37;100.00;59669.53;5093509;28;20042;-71
2022/10/16 10:21:49;;;;;;;;;;;;;;;-142.37;100.00;59669.53;5094055;28;20031;-70
2022/10/16 10:24:17;;;;;;;6.53;3.13;;;;;;;-142.37;100.00;59669.53;5112132;28;20391;-70
2022/10/16 10:27:15;;;;;;;7.28;3.10;;;;;;;-142.37;100.00;59669.53;5111590;28;20027;-70
2022/10/16 10:29:52;;;;;;;7.00;3.72;;;;;;;-142.37;100.00;59669.53;5114281;28;20038;-71
2022/10/16 10:32:45;;;;;;;8.63;3.97;;;;;;;-142.37;100.00;59669.53;5115772;28;20420;-68
2022/10/16 10:35:21;;;;;;;7.00;3.17;;;;;;;-142.37;100.00;59669.53;5096676;28;20058;-71
2022/10/16 10:38:00;;;;;;;10.00;3.42;;;;;;;-142.37;100.00;59669.53;5097307;28;20080;-68
2022/10/16 10:40:53;;;;;;;11.52;3.03;;;;;;;-142.37;100.00;59669.53;5097126;28;20031;-69
2022/10/16 10:43:19;;;;;;;6.32;3.22;;;;;;;-142.37;100.00;59669.53;5097269;28;20028;-70
2022/10/16 10:45:54;;;;;;;5.03;2.63;;;;;;;-142.37;100.00;59669.53;5115073;28;20606;-71
2022/10/16 10:48:22;;;;;;;6.55;2.50;;;;;;;-142.37;100.00;59669.53;5115392;28;20464;-69
2022/10/16 10:51:16;;;;;;;6.45;2.78;;;;;;;-142.37;100.00;59669.53;5096638;28;20039;-71
2022/10/16 10:53:52;;;;;;;7.25;3.13;;;;;;;-142.37;100.00;59669.53;5114966;28;20039;-68
2022/10/16 10:56:20;;;;;;;5.72;2.80;;;;;;;-142.37;100.00;59669.53;5096980;28;20133;-69
2022/10/16 10:59:27;;;;;;;4.80;2.53;;;;;;;-142.37;100.00;59669.53;5096793;28;20067;-69
2022/10/16 11:02:02;;;;;;;5.10;2.50;;;;;;;-142.37;100.00;59669.53;5115209;28;20035;-70
2022/10/16 11:05:04;;;;;;;4.38;2.53;;;;;;;-142.37;100.00;59669.53;5114892;28;20034;-69
2022/10/16 11:07:36;;;;;;;5.10;2.30;;;;;;;-142.37;100.00;59669.53;5114854;28;20519;-70
2022/10/16 11:10:24;;;;;;;6.38;2.63;;;;;;;-142.37;100.00;59669.53;5096555;28;20538;-70
2022/10/16 11:12:58;;;;;;;7.15;2.50;;;;;;;-142.37;100.00;59669.53;5096341;28;20063;-69
2022/10/16 11:15:28;;;;;;;;;;;;;;;-142.37;100.00;59669.53;5115276;28;20023;-68